createdAt,value
2023-01-18T00:01:06.959Z,1.80
2023-01-18T00:03:35.076Z,1.80
2023-01-18T00:06:07.261Z,1.80
2023-01-18T00:08:35.801Z,1.80
2023-01-18T00:11:04.029Z,1.80
2023-01-18T00:13:30.819Z,1.90
2023-01-18T00:16:05.903Z,2.00
2023-01-18T00:18:33.024Z,2.00
2023-01-18T00:21:07.890Z,1.90
2023-01-18T00:23:35.298Z,2.00
2023-01-18T00:26:02.848Z,2.10
2023-01-18T00:28:29.636Z,2.10
2023-01-18T00:30:56.635Z,2.00
2023-01-18T00:33:23.401Z,2.10
2023-01-18T00:36:01.396Z,2.00
2023-01-18T00:38:29.326Z,1.90
2023-01-18T00:40:56.882Z,1.90
2023-01-18T00:43:41.717Z,1.80
2023-01-18T00:46:09.410Z,1.80
2023-01-18T00:48:37.003Z,2.00
2023-01-18T00:51:03.793Z,2.00
2023-01-18T00:53:30.942Z,1.90
2023-01-18T00:55:57.611Z,2.00
2023-01-18T00:58:24.431Z,1.90
2023-01-18T01:00:52.684Z,2.20
2023-01-18T01:03:20.955Z,2.20
2023-01-18T01:06:06.602Z,2.00
2023-01-18T01:08:33.542Z,2.00
2023-01-18T01:11:09.999Z,1.80
2023-01-18T01:13:56.174Z,1.90
2023-01-18T01:16:41.577Z,1.80
2023-01-18T01:19:27.037Z,1.80
2023-01-18T01:22:12.640Z,1.80
2023-01-18T01:24:58.066Z,1.80
2023-01-18T01:27:24.716Z,1.80
2023-01-18T01:29:52.568Z,1.70
2023-01-18T01:32:19.276Z,1.80
2023-01-18T01:34:46.040Z,1.60
2023-01-18T01:37:12.704Z,1.70
2023-01-18T01:39:39.358Z,1.90
2023-01-18T01:42:06.011Z,1.70
2023-01-18T01:44:34.383Z,1.50
2023-01-18T01:47:26.968Z,1.60
2023-01-18T01:49:59.040Z,1.60
2023-01-18T01:52:32.719Z,1.60
2023-01-18T01:55:24.924Z,1.60
2023-01-18T01:58:09.206Z,1.50
2023-01-18T02:00:35.888Z,1.60
2023-01-18T02:03:06.181Z,1.50
2023-01-18T02:05:36.322Z,1.60
2023-01-18T02:08:03.655Z,1.60
2023-01-18T02:10:30.947Z,1.60
2023-01-18T02:13:00.307Z,1.60
2023-01-18T02:15:56.460Z,1.50
2023-01-18T02:18:37.019Z,1.40
2023-01-18T02:21:26.537Z,1.50
2023-01-18T02:24:18.127Z,1.50
2023-01-18T02:27:26.342Z,1.40
2023-01-18T02:30:09.777Z,1.40
2023-01-18T02:32:46.369Z,1.30
2023-01-18T02:35:37.558Z,1.40
2023-01-18T02:38:15.527Z,1.30
2023-01-18T02:40:57.432Z,1.40
2023-01-18T02:43:44.040Z,1.40
2023-01-18T02:46:33.171Z,1.30
2023-01-18T02:49:15.631Z,1.20
2023-01-18T02:51:42.249Z,1.30
2023-01-18T02:54:11.952Z,1.20
2023-01-18T02:56:47.048Z,1.20
2023-01-18T02:59:16.493Z,1.30
2023-01-18T03:01:57.058Z,1.20
2023-01-18T03:04:54.301Z,1.20
2023-01-18T03:07:40.495Z,1.20
2023-01-18T03:10:09.798Z,1.10
2023-01-18T03:12:46.520Z,1.10
2023-01-18T03:15:23.167Z,1.10
2023-01-18T03:17:55.194Z,1.10
2023-01-18T03:20:25.871Z,1.10
2023-01-18T03:23:19.612Z,1.10
2023-01-18T03:25:50.245Z,1.00
2023-01-18T03:28:49.611Z,0.90
2023-01-18T03:31:46.675Z,0.90
2023-01-18T03:34:23.014Z,1.10
2023-01-18T03:36:52.541Z,0.90
2023-01-18T03:39:30.759Z,0.90
2023-01-18T03:42:13.452Z,1.00
2023-01-18T03:44:55.886Z,1.00
2023-01-18T03:47:22.700Z,1.00
2023-01-18T03:49:49.561Z,0.90
2023-01-18T03:52:25.112Z,0.90
2023-01-18T03:55:00.299Z,1.00
2023-01-18T03:57:36.859Z,1.00
2023-01-18T04:00:06.036Z,0.90
2023-01-18T04:02:32.806Z,0.80
2023-01-18T04:05:03.570Z,0.80
2023-01-18T04:07:34.625Z,0.80
2023-01-18T04:10:01.692Z,0.80
2023-01-18T04:12:28.828Z,0.90
2023-01-18T04:14:55.550Z,0.90
2023-01-18T04:17:22.304Z,1.00
2023-01-18T04:19:50.530Z,1.10
2023-01-18T04:22:20.686Z,1.20
2023-01-18T04:24:47.372Z,1.10
2023-01-18T04:27:18.876Z,1.00
2023-01-18T04:29:45.668Z,1.00
2023-01-18T04:32:12.332Z,1.10
2023-01-18T04:34:39.052Z,1.00
2023-01-18T04:37:05.710Z,0.90
2023-01-18T04:39:32.399Z,1.00
2023-01-18T04:41:59.139Z,0.90
2023-01-18T04:44:25.870Z,0.80
2023-01-18T04:46:52.736Z,0.80
2023-01-18T04:49:19.462Z,0.80
2023-01-18T04:51:47.576Z,1.00
2023-01-18T04:54:16.878Z,1.00
2023-01-18T04:56:43.577Z,1.00
2023-01-18T04:59:15.520Z,1.00
2023-01-18T05:01:42.328Z,1.00
2023-01-18T05:04:09.069Z,0.90
2023-01-18T05:06:35.731Z,0.80
2023-01-18T05:09:02.389Z,0.80
2023-01-18T05:11:29.026Z,0.90
2023-01-18T05:13:55.727Z,0.80
2023-01-18T05:16:23.880Z,0.80
2023-01-18T05:18:50.995Z,0.90
2023-01-18T05:21:17.696Z,0.90
2023-01-18T05:23:44.436Z,0.90
2023-01-18T05:26:20.896Z,0.90
2023-01-18T05:28:48.649Z,1.00
2023-01-18T05:31:16.377Z,0.80
2023-01-18T05:33:43.167Z,0.80
2023-01-18T05:36:10.745Z,0.80
2023-01-18T05:38:37.415Z,0.90
2023-01-18T05:41:07.954Z,0.80
2023-01-18T05:43:35.801Z,0.80
2023-01-18T05:46:02.683Z,0.90
2023-01-18T05:48:30.068Z,0.80
2023-01-18T05:50:56.752Z,1.10
2023-01-18T05:53:23.659Z,0.80
2023-01-18T05:55:58.388Z,1.00
2023-01-18T05:58:26.406Z,1.00
2023-01-18T06:00:53.439Z,1.00
2023-01-18T06:03:20.681Z,0.90
2023-01-18T06:05:48.567Z,0.90
2023-01-18T06:08:15.961Z,1.00
2023-01-18T06:10:42.713Z,1.10
2023-01-18T06:13:10.672Z,1.00
2023-01-18T06:15:37.412Z,1.00
2023-01-18T06:18:04.213Z,1.10
2023-01-18T06:20:31.434Z,1.10
2023-01-18T06:22:58.760Z,1.10
2023-01-18T06:25:26.009Z,1.10
2023-01-18T06:27:52.875Z,1.20
2023-01-18T06:30:20.337Z,1.30
2023-01-18T06:32:49.210Z,1.10
2023-01-18T06:35:16.076Z,1.00
2023-01-18T06:37:44.432Z,1.10
2023-01-18T06:40:11.684Z,1.10
2023-01-18T06:42:38.888Z,1.10
2023-01-18T06:45:06.130Z,0.90
2023-01-18T06:47:32.799Z,1.10
2023-01-18T06:49:59.477Z,1.10
2023-01-18T06:52:26.260Z,1.10
2023-01-18T06:54:52.951Z,0.90
2023-01-18T06:57:19.626Z,0.90
2023-01-18T06:59:46.296Z,0.90
2023-01-18T07:02:16.501Z,1.10
2023-01-18T07:04:45.318Z,1.20
2023-01-18T07:07:13.269Z,0.80
2023-01-18T07:09:40.048Z,0.70
2023-01-18T07:12:06.848Z,0.70
2023-01-18T07:14:33.887Z,0.70
2023-01-18T07:17:00.872Z,0.60
2023-01-18T07:19:27.624Z,0.70
2023-01-18T07:21:54.262Z,0.90
2023-01-18T07:24:21.275Z,1.10
2023-01-18T07:26:48.224Z,1.20
2023-01-18T07:29:15.015Z,1.00
2023-01-18T07:31:41.800Z,0.80
2023-01-18T07:34:09.894Z,0.90
2023-01-18T07:36:39.148Z,1.00
2023-01-18T07:39:06.581Z,0.90
2023-01-18T07:41:34.002Z,0.90
2023-01-18T07:44:01.168Z,0.90
2023-01-18T07:46:28.118Z,1.00
2023-01-18T07:48:55.068Z,0.90
2023-01-18T07:51:22.508Z,0.90
2023-01-18T07:53:52.636Z,1.10
2023-01-18T07:56:19.380Z,1.20
2023-01-18T07:58:46.261Z,1.10
2023-01-18T08:01:15.600Z,1.00
2023-01-18T08:03:44.174Z,1.10
2023-01-18T08:06:13.403Z,1.10
2023-01-18T08:08:40.479Z,1.10
2023-01-18T08:11:07.621Z,1.00
2023-01-18T08:13:34.496Z,1.00
2023-01-18T08:16:03.918Z,1.10
2023-01-18T08:18:31.024Z,1.20
2023-01-18T08:20:58.303Z,1.20
2023-01-18T08:23:25.114Z,1.30
2023-01-18T08:25:52.002Z,1.30
2023-01-18T08:28:19.452Z,1.30
2023-01-18T08:30:47.846Z,1.30
2023-01-18T08:33:15.176Z,1.30
2023-01-18T08:35:44.440Z,1.30
2023-01-18T08:38:12.084Z,1.20
2023-01-18T08:40:39.139Z,1.20
2023-01-18T08:43:06.645Z,1.30
2023-01-18T08:45:34.979Z,1.30
2023-01-18T08:48:10.753Z,1.50
2023-01-18T08:50:39.042Z,1.50
2023-01-18T08:53:05.784Z,1.60
2023-01-18T08:55:34.049Z,1.70
2023-01-18T08:58:00.784Z,1.70
2023-01-18T09:00:31.332Z,1.80
2023-01-18T09:02:59.293Z,1.80
2023-01-18T09:05:27.080Z,1.90
2023-01-18T09:07:54.992Z,1.90
2023-01-18T09:10:22.752Z,1.90
2023-01-18T09:12:50.035Z,2.00
2023-01-18T09:15:18.359Z,2.00
2023-01-18T09:17:45.359Z,1.90
2023-01-18T09:20:12.500Z,1.90
2023-01-18T09:22:39.701Z,1.90
2023-01-18T09:25:06.788Z,1.90
2023-01-18T09:27:33.528Z,2.00
2023-01-18T09:30:00.663Z,1.80
2023-01-18T09:32:27.499Z,1.70
2023-01-18T09:34:54.896Z,1.70
2023-01-18T09:37:22.116Z,1.70
2023-01-18T09:39:52.737Z,1.60
2023-01-18T09:42:27.004Z,1.80
2023-01-18T09:45:00.351Z,1.90
2023-01-18T09:47:30.878Z,2.00
2023-01-18T09:49:59.747Z,2.10
2023-01-18T09:52:42.517Z,2.10
2023-01-18T09:55:16.756Z,2.20
2023-01-18T09:58:24.868Z,2.20
2023-01-18T10:01:06.487Z,2.30
2023-01-18T10:03:43.522Z,2.30
2023-01-18T10:06:17.761Z,2.30
2023-01-18T10:08:49.999Z,2.40
2023-01-18T10:11:30.034Z,2.40
2023-01-18T10:13:59.638Z,2.40
2023-01-18T10:16:26.463Z,2.50
2023-01-18T10:18:57.171Z,2.50
2023-01-18T10:21:33.783Z,2.50
2023-01-18T10:24:39.781Z,2.40
2023-01-18T10:27:27.281Z,2.40
2023-01-18T10:30:14.144Z,2.40
2023-01-18T10:32:47.701Z,2.30
2023-01-18T10:35:23.748Z,2.50
2023-01-18T10:37:51.895Z,2.50
2023-01-18T10:40:18.735Z,2.40
2023-01-18T10:42:47.831Z,2.50
2023-01-18T10:45:25.605Z,2.50
2023-01-18T10:47:54.441Z,2.50
2023-01-18T10:50:32.848Z,2.50
2023-01-18T10:53:20.860Z,2.50
2023-01-18T10:56:04.386Z,2.50
2023-01-18T10:58:45.400Z,2.60
2023-01-18T11:01:33.477Z,2.50
2023-01-18T11:04:16.701Z,2.50
2023-01-18T11:07:03.893Z,2.50
2023-01-18T11:09:45.792Z,2.50
2023-01-18T11:12:36.295Z,2.70
2023-01-18T11:15:15.064Z,2.80
2023-01-18T11:17:46.232Z,2.60
2023-01-18T11:20:23.228Z,2.90
2023-01-18T11:22:59.522Z,2.80
2023-01-18T11:25:47.434Z,2.90
2023-01-18T11:28:39.568Z,2.70
2023-01-18T11:31:15.267Z,2.70
2023-01-18T11:33:57.494Z,2.70
2023-01-18T11:36:54.320Z,2.90
2023-01-18T11:39:28.268Z,2.60
2023-01-18T11:42:31.536Z,2.70
2023-01-18T11:45:04.361Z,2.70
2023-01-18T11:48:03.798Z,2.60
2023-01-18T11:50:33.862Z,2.60
2023-01-18T11:53:23.478Z,2.50
2023-01-18T11:56:04.870Z,2.60
2023-01-18T11:58:33.707Z,2.60
2023-01-18T12:01:21.629Z,2.70
2023-01-18T12:04:03.547Z,2.60
2023-01-18T12:06:38.806Z,2.80
2023-01-18T12:09:36.937Z,2.80
2023-01-18T12:12:44.917Z,2.90
2023-01-18T12:15:42.368Z,2.90
2023-01-18T12:18:38.213Z,2.80
2023-01-18T12:21:13.696Z,3.00
2023-01-18T12:24:04.009Z,3.10
2023-01-18T12:27:09.836Z,3.10
2023-01-18T12:30:06.475Z,3.10
2023-01-18T12:32:41.953Z,3.30
2023-01-18T12:35:35.385Z,3.30
2023-01-18T12:38:28.857Z,3.40
2023-01-18T12:41:23.710Z,3.20
2023-01-18T12:44:11.555Z,3.50
2023-01-18T12:46:48.165Z,3.50
2023-01-18T12:49:18.821Z,3.60
2023-01-18T12:51:48.851Z,3.10
2023-01-18T12:54:27.407Z,3.30
2023-01-18T12:56:57.241Z,3.60
2023-01-18T12:59:35.928Z,3.50
2023-01-18T13:02:25.885Z,3.60
2023-01-18T13:05:14.447Z,3.50
2023-01-18T13:07:59.084Z,3.50
2023-01-18T13:10:28.696Z,3.50
2023-01-18T13:12:57.128Z,3.70
2023-01-18T13:15:31.221Z,3.40
2023-01-18T13:18:08.077Z,3.30
2023-01-18T13:20:55.467Z,3.40
2023-01-18T13:23:47.181Z,3.60
2023-01-18T13:26:27.258Z,3.40
2023-01-18T13:29:29.699Z,3.60
2023-01-18T13:31:57.146Z,3.80
2023-01-18T13:34:30.691Z,3.70
2023-01-18T13:37:13.452Z,3.70
2023-01-18T13:39:48.151Z,3.80
2023-01-18T13:42:14.883Z,3.60
2023-01-18T13:44:45.856Z,3.50
2023-01-18T13:47:45.769Z,3.70
2023-01-18T13:50:39.765Z,3.70
2023-01-18T13:53:15.685Z,3.80
2023-01-18T13:55:54.481Z,3.90
2023-01-18T13:58:29.703Z,4.00
2023-01-18T14:00:59.968Z,4.00
2023-01-18T14:03:30.661Z,4.00
2023-01-18T14:05:58.537Z,3.90
2023-01-18T14:08:32.588Z,4.20
2023-01-18T14:11:04.481Z,3.90
2023-01-18T14:13:46.467Z,4.10
2023-01-18T14:16:22.713Z,4.30
2023-01-18T14:19:10.999Z,4.40
2023-01-18T14:21:54.690Z,4.20
2023-01-18T14:25:01.724Z,4.00
2023-01-18T14:27:35.321Z,3.90
2023-01-18T14:30:07.112Z,4.00
2023-01-18T14:32:40.017Z,4.20
2023-01-18T14:35:20.506Z,4.30
2023-01-18T14:37:47.451Z,4.30
2023-01-18T14:40:27.037Z,4.30
2023-01-18T14:42:56.942Z,4.30
2023-01-18T14:45:37.236Z,4.30
2023-01-18T14:48:17.239Z,4.00
2023-01-18T14:50:47.015Z,4.00
2023-01-18T14:53:20.485Z,4.10
2023-01-18T14:56:26.193Z,4.10
2023-01-18T14:58:58.469Z,3.90
2023-01-18T15:01:37.110Z,3.90
2023-01-18T15:04:19.583Z,3.90
2023-01-18T15:06:54.090Z,3.90
2023-01-18T15:09:22.643Z,3.80
2023-01-18T15:11:52.211Z,3.70
2023-01-18T15:14:23.324Z,3.60
2023-01-18T15:16:53.379Z,3.60
2023-01-18T15:19:54.469Z,3.60
2023-01-18T15:22:27.618Z,3.50
2023-01-18T15:24:57.804Z,3.50
2023-01-18T15:27:24.752Z,3.40
2023-01-18T15:29:54.491Z,3.20
2023-01-18T15:32:25.047Z,3.20
2023-01-18T15:34:53.475Z,3.10
2023-01-18T15:37:36.434Z,3.20
2023-01-18T15:40:14.618Z,3.20
2023-01-18T15:42:53.605Z,3.20
2023-01-18T15:45:25.722Z,3.10
2023-01-18T15:47:55.043Z,3.10
2023-01-18T15:50:25.591Z,3.00
2023-01-18T15:53:06.350Z,3.00
2023-01-18T15:55:45.664Z,3.00
2023-01-18T15:58:40.162Z,3.10
2023-01-18T16:01:15.830Z,3.00
2023-01-18T16:03:45.988Z,3.00
2023-01-18T16:06:20.281Z,3.00
2023-01-18T16:09:10.352Z,2.90
2023-01-18T16:11:41.124Z,2.90
2023-01-18T16:14:25.494Z,2.90
2023-01-18T16:16:53.922Z,2.80
2023-01-18T16:19:41.105Z,2.80
2023-01-18T16:22:19.555Z,2.80
2023-01-18T16:25:02.082Z,2.70
2023-01-18T16:27:32.315Z,2.70
2023-01-18T16:30:01.713Z,2.60
2023-01-18T16:32:32.394Z,2.50
2023-01-18T16:35:10.015Z,2.50
2023-01-18T16:37:38.387Z,2.50
2023-01-18T16:40:09.302Z,2.50
2023-01-18T16:42:58.426Z,2.40
2023-01-18T16:45:25.770Z,2.40
2023-01-18T16:47:52.449Z,2.30
2023-01-18T16:50:19.539Z,2.30
2023-01-18T16:52:46.300Z,2.30
2023-01-18T16:55:17.275Z,2.20
2023-01-18T16:57:45.056Z,2.20
2023-01-18T17:00:19.674Z,2.10
2023-01-18T17:02:46.417Z,2.20
2023-01-18T17:05:14.129Z,2.20
2023-01-18T17:07:41.039Z,2.20
2023-01-18T17:10:38.846Z,2.20
2023-01-18T17:13:05.906Z,2.20
2023-01-18T17:15:34.621Z,2.20
2023-01-18T17:18:02.276Z,2.20
2023-01-18T17:20:30.641Z,2.30
2023-01-18T17:22:57.777Z,2.20
2023-01-18T17:25:25.128Z,2.20
2023-01-18T17:27:51.963Z,2.20
2023-01-18T17:30:21.412Z,2.20
2023-01-18T17:32:48.838Z,2.20
2023-01-18T17:35:17.428Z,2.20
2023-01-18T17:37:44.333Z,2.20
2023-01-18T17:40:19.688Z,2.20
2023-01-18T17:42:51.743Z,2.20
2023-01-18T17:45:18.907Z,2.10
2023-01-18T17:47:45.604Z,2.10
2023-01-18T17:50:17.436Z,2.10
2023-01-18T17:52:44.172Z,2.10
2023-01-18T17:55:13.613Z,2.10
2023-01-18T17:57:41.281Z,2.10
2023-01-18T18:00:11.819Z,2.10
2023-01-18T18:02:38.548Z,2.00
2023-01-18T18:05:05.794Z,2.00
2023-01-18T18:07:32.638Z,1.90
2023-01-18T18:10:01.350Z,2.00
2023-01-18T18:12:29.453Z,1.90
2023-01-18T18:14:56.393Z,1.90
2023-01-18T18:17:25.259Z,1.90
2023-01-18T18:19:51.914Z,2.00
2023-01-18T18:22:21.545Z,2.00
2023-01-18T18:24:49.259Z,1.90
2023-01-18T18:27:17.326Z,1.90
2023-01-18T18:29:44.509Z,1.90
2023-01-18T18:32:11.931Z,2.00
2023-01-18T18:34:38.736Z,2.00
2023-01-18T18:37:05.449Z,2.00
2023-01-18T18:39:35.325Z,1.90
2023-01-18T18:42:02.053Z,1.90
2023-01-18T18:44:28.782Z,1.90
2023-01-18T18:46:55.523Z,1.90
2023-01-18T18:49:22.296Z,1.80
2023-01-18T18:51:48.942Z,1.70
2023-01-18T18:54:15.721Z,1.70
2023-01-18T18:56:42.809Z,1.60
2023-01-18T18:59:09.699Z,1.60
2023-01-18T19:01:36.695Z,1.60
2023-01-18T19:04:04.487Z,1.60
2023-01-18T19:06:31.273Z,1.70
2023-01-18T19:08:58.628Z,1.70
2023-01-18T19:11:25.527Z,1.60
2023-01-18T19:13:54.904Z,1.60
2023-01-18T19:16:21.641Z,1.50
2023-01-18T19:18:48.520Z,1.50
2023-01-18T19:21:15.310Z,1.50
2023-01-18T19:23:42.069Z,1.40
2023-01-18T19:26:08.986Z,1.40
2023-01-18T19:28:36.456Z,1.40
2023-01-18T19:31:08.005Z,1.40
2023-01-18T19:33:35.066Z,1.50
2023-01-18T19:36:10.816Z,1.40
2023-01-18T19:38:46.702Z,1.40
2023-01-18T19:41:16.149Z,1.50
2023-01-18T19:43:43.264Z,1.40
2023-01-18T19:46:11.779Z,1.40
2023-01-18T19:48:39.295Z,1.40
2023-01-18T19:51:21.246Z,1.40
2023-01-18T19:53:49.061Z,1.40
2023-01-18T19:56:15.803Z,1.50
2023-01-18T19:58:42.537Z,1.40
2023-01-18T20:01:11.307Z,1.30
2023-01-18T20:03:38.355Z,1.40
2023-01-18T20:06:09.956Z,1.40
2023-01-18T20:08:37.070Z,1.40
2023-01-18T20:11:12.057Z,1.40
2023-01-18T20:13:40.049Z,1.40
2023-01-18T20:16:06.887Z,1.30
2023-01-18T20:18:35.468Z,1.30
2023-01-18T20:21:12.052Z,1.40
2023-01-18T20:23:38.839Z,1.40
2023-01-18T20:26:06.456Z,1.40
2023-01-18T20:28:35.647Z,1.40
2023-01-18T20:31:05.541Z,1.40
2023-01-18T20:33:35.250Z,1.30
2023-01-18T20:36:03.161Z,1.30
2023-01-18T20:38:30.299Z,1.40
2023-01-18T20:40:57.119Z,1.30
2023-01-18T20:43:23.780Z,1.30
2023-01-18T20:46:00.460Z,1.30
2023-01-18T20:48:27.183Z,1.30
2023-01-18T20:50:53.928Z,1.20
2023-01-18T20:53:20.760Z,1.30
2023-01-18T20:55:47.444Z,1.30
2023-01-18T20:58:14.130Z,1.20
2023-01-18T21:00:40.878Z,1.30
2023-01-18T21:03:07.727Z,1.30
2023-01-18T21:05:34.462Z,1.40
2023-01-18T21:08:01.500Z,1.50
2023-01-18T21:10:38.497Z,1.40
2023-01-18T21:13:09.813Z,1.40
2023-01-18T21:15:37.789Z,1.30
2023-01-18T21:18:06.099Z,1.20
2023-01-18T21:20:33.124Z,1.20
2023-01-18T21:23:01.257Z,1.30
2023-01-18T21:25:29.999Z,1.30
2023-01-18T21:27:58.069Z,1.30
2023-01-18T21:30:25.131Z,1.30
2023-01-18T21:32:51.869Z,1.30
2023-01-18T21:35:18.884Z,1.30
2023-01-18T21:37:45.569Z,1.30
2023-01-18T21:40:12.601Z,1.20
2023-01-18T21:42:57.837Z,1.10
2023-01-18T21:45:43.348Z,1.10
2023-01-18T21:48:10.101Z,1.10
2023-01-18T21:50:59.301Z,1.10
2023-01-18T21:53:44.875Z,1.10
2023-01-18T21:56:11.641Z,1.10
2023-01-18T21:58:53.360Z,1.10
2023-01-18T22:01:34.433Z,1.10
2023-01-18T22:04:21.910Z,1.20
2023-01-18T22:06:48.949Z,1.20
2023-01-18T22:09:16.083Z,1.10
2023-01-18T22:11:43.326Z,1.10
2023-01-18T22:14:10.524Z,1.20
2023-01-18T22:16:37.680Z,1.20
2023-01-18T22:19:05.077Z,1.20
2023-01-18T22:21:32.608Z,1.10
2023-01-18T22:24:00.125Z,1.10
2023-01-18T22:26:28.852Z,1.10
2023-01-18T22:28:55.636Z,1.00
2023-01-18T22:31:22.739Z,1.00
2023-01-18T22:33:49.455Z,1.00
2023-01-18T22:36:16.752Z,0.90
2023-01-18T22:38:44.811Z,1.00
2023-01-18T22:41:15.452Z,1.00
2023-01-18T22:43:43.008Z,1.00
2023-01-18T22:46:13.391Z,1.00
2023-01-18T22:48:40.813Z,0.90
2023-01-18T22:51:10.699Z,1.10
2023-01-18T22:53:38.241Z,1.00
2023-01-18T22:56:07.640Z,1.00
2023-01-18T22:58:35.252Z,1.00
2023-01-18T23:01:02.382Z,1.10
2023-01-18T23:03:31.191Z,0.90
2023-01-18T23:05:59.800Z,0.90
2023-01-18T23:08:44.650Z,0.90
2023-01-18T23:11:14.344Z,0.90
2023-01-18T23:13:43.084Z,0.90
2023-01-18T23:16:32.136Z,0.90
2023-01-18T23:18:59.190Z,0.90
2023-01-18T23:21:25.936Z,0.90
2023-01-18T23:23:52.664Z,0.90
2023-01-18T23:26:19.291Z,0.90
2023-01-18T23:28:46.052Z,0.90
2023-01-18T23:31:15.426Z,0.80
2023-01-18T23:33:42.790Z,0.90
2023-01-18T23:36:10.765Z,0.90
2023-01-18T23:38:56.792Z,0.80
2023-01-18T23:41:42.248Z,0.80
2023-01-18T23:44:27.609Z,0.80
2023-01-18T23:47:13.262Z,0.90
2023-01-18T23:49:58.875Z,0.80
2023-01-18T23:52:44.350Z,0.80
2023-01-18T23:55:11.101Z,0.90
2023-01-18T23:57:37.923Z,0.80
